sensor_id;sensor_type;location;lat;lon;timestamp;pressure;altitude;pressure_sealevel;temperature;humidity
61898;BME280;47850;50.274;18.908;2023-03-25T00:01:34;97044.85;;;11.00;87.87
61898;BME280;47850;50.274;18.908;2023-03-25T00:04:02;97045.04;;;10.95;87.82
61898;BME280;47850;50.274;18.908;2023-03-25T00:06:33;97039.38;;;10.91;88.15
61898;BME280;47850;50.274;18.908;2023-03-25T00:09:01;97031.50;;;10.84;88.46
61898;BME280;47850;50.274;18.908;2023-03-25T00:11:30;97031.23;;;10.80;88.41
61898;BME280;47850;50.274;18.908;2023-03-25T00:13:58;97034.39;;;10.76;88.68
61898;BME280;47850;50.274;18.908;2023-03-25T00:16:26;97036.15;;;10.75;88.94
61898;BME280;47850;50.274;18.908;2023-03-25T00:18:54;97037.31;;;10.75;89.07
61898;BME280;47850;50.274;18.908;2023-03-25T00:21:22;97036.05;;;10.74;89.10
61898;BME280;47850;50.274;18.908;2023-03-25T00:23:49;97041.20;;;10.72;89.07
61898;BME280;47850;50.274;18.908;2023-03-25T00:26:17;97039.83;;;10.69;89.08
61898;BME280;47850;50.274;18.908;2023-03-25T00:28:45;97037.79;;;10.66;89.05
61898;BME280;47850;50.274;18.908;2023-03-25T00:31:13;97041.59;;;10.63;89.39
61898;BME280;47850;50.274;18.908;2023-03-25T00:33:41;97040.45;;;10.61;89.42
61898;BME280;47850;50.274;18.908;2023-03-25T00:36:09;97047.44;;;10.60;89.47
61898;BME280;47850;50.274;18.908;2023-03-25T00:38:40;97042.14;;;10.61;89.55
61898;BME280;47850;50.274;18.908;2023-03-25T00:41:16;97037.24;;;10.60;89.50
61898;BME280;47850;50.274;18.908;2023-03-25T00:43:50;97028.98;;;10.60;89.52
61898;BME280;47850;50.274;18.908;2023-03-25T00:46:18;97028.13;;;10.61;89.55
61898;BME280;47850;50.274;18.908;2023-03-25T00:48:46;97033.66;;;10.60;89.59
61898;BME280;47850;50.274;18.908;2023-03-25T00:51:13;97035.74;;;10.60;89.50
61898;BME280;47850;50.274;18.908;2023-03-25T00:53:52;97044.79;;;10.60;89.57
61898;BME280;47850;50.274;18.908;2023-03-25T00:56:21;97047.14;;;10.61;89.58
61898;BME280;47850;50.274;18.908;2023-03-25T00:58:50;97045.07;;;10.62;89.78
61898;BME280;47850;50.274;18.908;2023-03-25T01:01:18;97044.96;;;10.63;89.82
61898;BME280;47850;50.274;18.908;2023-03-25T01:03:49;97042.89;;;10.65;89.74
61898;BME280;47850;50.274;18.908;2023-03-25T01:06:42;97043.50;;;10.67;89.77
61898;BME280;47850;50.274;18.908;2023-03-25T01:09:11;97048.67;;;10.65;89.66
61898;BME280;47850;50.274;18.908;2023-03-25T01:11:43;97048.60;;;10.62;89.22
61898;BME280;47850;50.274;18.908;2023-03-25T01:14:12;97045.38;;;10.59;88.99
61898;BME280;47850;50.274;18.908;2023-03-25T01:16:41;97044.13;;;10.56;88.89
61898;BME280;47850;50.274;18.908;2023-03-25T01:19:09;97037.24;;;10.52;88.61
61898;BME280;47850;50.274;18.908;2023-03-25T01:21:38;97039.43;;;10.49;88.32
61898;BME280;47850;50.274;18.908;2023-03-25T01:24:07;97043.85;;;10.46;87.51
61898;BME280;47850;50.274;18.908;2023-03-25T01:26:35;97049.84;;;10.43;87.24
61898;BME280;47850;50.274;18.908;2023-03-25T01:29:03;97046.40;;;10.40;86.76
61898;BME280;47850;50.274;18.908;2023-03-25T01:31:30;97043.34;;;10.36;86.28
61898;BME280;47850;50.274;18.908;2023-03-25T01:33:58;97048.55;;;10.34;86.06
61898;BME280;47850;50.274;18.908;2023-03-25T01:36:26;97045.90;;;10.31;85.17
61898;BME280;47850;50.274;18.908;2023-03-25T01:38:57;97047.48;;;10.29;84.69
61898;BME280;47850;50.274;18.908;2023-03-25T01:41:26;97048.38;;;10.25;84.07
61898;BME280;47850;50.274;18.908;2023-03-25T01:44:04;97051.27;;;10.23;82.89
61898;BME280;47850;50.274;18.908;2023-03-25T01:46:33;97053.84;;;10.20;82.36
61898;BME280;47850;50.274;18.908;2023-03-25T01:49:01;97044.98;;;10.18;81.98
61898;BME280;47850;50.274;18.908;2023-03-25T01:51:32;97035.52;;;10.17;81.19
61898;BME280;47850;50.274;18.908;2023-03-25T01:54:01;97030.80;;;10.15;80.30
61898;BME280;47850;50.274;18.908;2023-03-25T01:56:30;97019.45;;;10.13;80.35
61898;BME280;47850;50.274;18.908;2023-03-25T01:59:00;97009.27;;;10.09;80.35
61898;BME280;47850;50.274;18.908;2023-03-25T02:01:29;97012.05;;;10.01;79.64
61898;BME280;47850;50.274;18.908;2023-03-25T02:03:58;97010.66;;;9.95;79.87
61898;BME280;47850;50.274;18.908;2023-03-25T02:06:45;97021.19;;;9.87;80.04
61898;BME280;47850;50.274;18.908;2023-03-25T02:09:18;97028.63;;;9.82;79.96
61898;BME280;47850;50.274;18.908;2023-03-25T02:11:47;97029.86;;;9.79;80.00
61898;BME280;47850;50.274;18.908;2023-03-25T02:14:16;97030.06;;;9.75;79.97
61898;BME280;47850;50.274;18.908;2023-03-25T02:24:59;97040.84;;;9.64;79.68
61898;BME280;47850;50.274;18.908;2023-03-25T02:32:59;97048.41;;;9.57;79.89
61898;BME280;47850;50.274;18.908;2023-03-25T02:35:40;97046.23;;;9.54;79.69
61898;BME280;47850;50.274;18.908;2023-03-25T02:43:31;97052.45;;;9.49;79.61
61898;BME280;47850;50.274;18.908;2023-03-25T02:46:02;97052.43;;;9.47;79.94
61898;BME280;47850;50.274;18.908;2023-03-25T02:49:19;97047.93;;;9.45;79.85
61898;BME280;47850;50.274;18.908;2023-03-25T02:51:26;97044.81;;;9.41;79.93
61898;BME280;47850;50.274;18.908;2023-03-25T02:53:58;97050.27;;;9.40;79.89
61898;BME280;47850;50.274;18.908;2023-03-25T02:56:27;97053.35;;;9.38;79.92
61898;BME280;47850;50.274;18.908;2023-03-25T02:58:59;97050.90;;;9.37;80.01
61898;BME280;47850;50.274;18.908;2023-03-25T03:01:27;97048.95;;;9.35;80.06
61898;BME280;47850;50.274;18.908;2023-03-25T03:03:55;97054.46;;;9.33;79.96
61898;BME280;47850;50.274;18.908;2023-03-25T03:06:23;97064.89;;;9.31;80.04
61898;BME280;47850;50.274;18.908;2023-03-25T03:08:57;97069.73;;;9.29;80.19
61898;BME280;47850;50.274;18.908;2023-03-25T03:24:35;97080.81;;;9.21;80.61
61898;BME280;47850;50.274;18.908;2023-03-25T03:27:08;97083.48;;;9.19;80.62
61898;BME280;47850;50.274;18.908;2023-03-25T03:29:45;97082.61;;;9.19;80.71
61898;BME280;47850;50.274;18.908;2023-03-25T03:32:19;97089.60;;;9.19;80.55
61898;BME280;47850;50.274;18.908;2023-03-25T03:34:50;97092.55;;;9.18;79.94
61898;BME280;47850;50.274;18.908;2023-03-25T03:37:35;97097.90;;;9.18;80.00
61898;BME280;47850;50.274;18.908;2023-03-25T03:40:05;97098.17;;;9.17;80.26
61898;BME280;47850;50.274;18.908;2023-03-25T03:42:41;97093.36;;;9.15;80.39
61898;BME280;47850;50.274;18.908;2023-03-25T03:45:12;97088.73;;;9.14;80.40
61898;BME280;47850;50.274;18.908;2023-03-25T03:47:44;97082.06;;;9.12;80.69
61898;BME280;47850;50.274;18.908;2023-03-25T03:50:18;97081.55;;;9.09;80.85
61898;BME280;47850;50.274;18.908;2023-03-25T03:53:05;97081.58;;;9.09;81.04
61898;BME280;47850;50.274;18.908;2023-03-25T03:55:39;97082.30;;;9.07;80.94
61898;BME280;47850;50.274;18.908;2023-03-25T03:58:13;97082.02;;;9.06;80.85
61898;BME280;47850;50.274;18.908;2023-03-25T04:00:49;97081.54;;;9.03;81.05
61898;BME280;47850;50.274;18.908;2023-03-25T04:03:19;97079.52;;;9.01;81.02
61898;BME280;47850;50.274;18.908;2023-03-25T04:05:53;97082.17;;;8.99;80.85
61898;BME280;47850;50.274;18.908;2023-03-25T04:08:36;97082.66;;;8.97;80.89
61898;BME280;47850;50.274;18.908;2023-03-25T04:11:10;97080.13;;;8.96;81.05
61898;BME280;47850;50.274;18.908;2023-03-25T04:13:39;97083.83;;;8.95;81.26
61898;BME280;47850;50.274;18.908;2023-03-25T04:16:09;97084.80;;;8.94;81.08
61898;BME280;47850;50.274;18.908;2023-03-25T04:18:37;97088.98;;;8.93;81.09
61898;BME280;47850;50.274;18.908;2023-03-25T04:21:06;97083.77;;;8.91;81.18
61898;BME280;47850;50.274;18.908;2023-03-25T04:23:33;97085.71;;;8.89;81.39
61898;BME280;47850;50.274;18.908;2023-03-25T04:26:04;97085.75;;;8.85;81.60
61898;BME280;47850;50.274;18.908;2023-03-25T04:28:32;97086.71;;;8.82;81.65
61898;BME280;47850;50.274;18.908;2023-03-25T04:31:03;97083.77;;;8.78;81.76
61898;BME280;47850;50.274;18.908;2023-03-25T04:33:33;97085.55;;;8.73;81.90
61898;BME280;47850;50.274;18.908;2023-03-25T04:36:02;97088.63;;;8.70;81.92
61898;BME280;47850;50.274;18.908;2023-03-25T04:38:30;97098.99;;;8.67;82.25
61898;BME280;47850;50.274;18.908;2023-03-25T04:40:57;97106.25;;;8.64;82.25
61898;BME280;47850;50.274;18.908;2023-03-25T04:43:26;97106.11;;;8.60;82.51
61898;BME280;47850;50.274;18.908;2023-03-25T04:45:54;97101.48;;;8.56;82.77
61898;BME280;47850;50.274;18.908;2023-03-25T04:48:25;97102.55;;;8.54;82.92
61898;BME280;47850;50.274;18.908;2023-03-25T04:50:57;97106.66;;;8.52;83.00
61898;BME280;47850;50.274;18.908;2023-03-25T04:53:25;97104.05;;;8.50;83.14
61898;BME280;47850;50.274;18.908;2023-03-25T04:55:53;97102.42;;;8.49;82.99
61898;BME280;47850;50.274;18.908;2023-03-25T04:58:21;97104.48;;;8.47;83.03
61898;BME280;47850;50.274;18.908;2023-03-25T05:00:50;97105.44;;;8.46;83.03
61898;BME280;47850;50.274;18.908;2023-03-25T05:03:18;97106.00;;;8.44;83.09
61898;BME280;47850;50.274;18.908;2023-03-25T05:05:52;97108.73;;;8.45;83.16
61898;BME280;47850;50.274;18.908;2023-03-25T05:08:19;97113.04;;;8.44;83.36
61898;BME280;47850;50.274;18.908;2023-03-25T05:10:50;97117.90;;;8.43;83.47
61898;BME280;47850;50.274;18.908;2023-03-25T05:13:18;97112.70;;;8.43;83.50
61898;BME280;47850;50.274;18.908;2023-03-25T05:15:47;97114.16;;;8.43;83.53
61898;BME280;47850;50.274;18.908;2023-03-25T05:18:15;97116.91;;;8.44;83.59
61898;BME280;47850;50.274;18.908;2023-03-25T05:20:44;97118.19;;;8.44;83.60
61898;BME280;47850;50.274;18.908;2023-03-25T05:23:13;97115.84;;;8.47;83.41
61898;BME280;47850;50.274;18.908;2023-03-25T05:25:44;97113.18;;;8.51;83.36
61898;BME280;47850;50.274;18.908;2023-03-25T05:28:13;97117.39;;;8.56;83.16
61898;BME280;47850;50.274;18.908;2023-03-25T05:30:45;97127.49;;;8.60;83.16
61898;BME280;47850;50.274;18.908;2023-03-25T05:33:14;97127.52;;;8.63;83.10
61898;BME280;47850;50.274;18.908;2023-03-25T05:35:42;97125.27;;;8.65;82.98
61898;BME280;47850;50.274;18.908;2023-03-25T05:38:10;97128.34;;;8.67;82.98
61898;BME280;47850;50.274;18.908;2023-03-25T05:40:45;97134.40;;;8.69;83.01
61898;BME280;47850;50.274;18.908;2023-03-25T05:43:14;97134.52;;;8.69;83.12
61898;BME280;47850;50.274;18.908;2023-03-25T05:45:41;97131.88;;;8.70;82.72
61898;BME280;47850;50.274;18.908;2023-03-25T05:48:09;97137.04;;;8.71;82.75
61898;BME280;47850;50.274;18.908;2023-03-25T05:50:37;97139.31;;;8.71;82.60
61898;BME280;47850;50.274;18.908;2023-03-25T05:53:12;97135.97;;;8.73;82.59
61898;BME280;47850;50.274;18.908;2023-03-25T05:55:41;97139.55;;;8.76;82.47
61898;BME280;47850;50.274;18.908;2023-03-25T05:58:09;97140.52;;;8.79;82.60
61898;BME280;47850;50.274;18.908;2023-03-25T06:00:37;97136.23;;;8.83;82.46
61898;BME280;47850;50.274;18.908;2023-03-25T06:03:05;97136.08;;;8.90;82.42
61898;BME280;47850;50.274;18.908;2023-03-25T06:05:33;97128.23;;;8.99;82.33
61898;BME280;47850;50.274;18.908;2023-03-25T06:08:01;97125.96;;;9.09;82.28
61898;BME280;47850;50.274;18.908;2023-03-25T06:10:30;97129.84;;;9.20;82.01
61898;BME280;47850;50.274;18.908;2023-03-25T06:12:59;97134.11;;;9.29;81.38
61898;BME280;47850;50.274;18.908;2023-03-25T06:15:27;97140.86;;;9.38;81.08
61898;BME280;47850;50.274;18.908;2023-03-25T06:17:59;97143.14;;;9.46;80.99
61898;BME280;47850;50.274;18.908;2023-03-25T06:20:27;97145.27;;;9.51;80.72
61898;BME280;47850;50.274;18.908;2023-03-25T06:22:55;97149.17;;;9.56;80.22
61898;BME280;47850;50.274;18.908;2023-03-25T06:25:23;97152.67;;;9.61;80.03
61898;BME280;47850;50.274;18.908;2023-03-25T06:27:53;97158.46;;;9.67;79.67
61898;BME280;47850;50.274;18.908;2023-03-25T06:30:22;97153.70;;;9.71;79.38
61898;BME280;47850;50.274;18.908;2023-03-25T06:32:50;97155.54;;;9.75;79.40
61898;BME280;47850;50.274;18.908;2023-03-25T06:35:18;97157.44;;;9.81;79.40
61898;BME280;47850;50.274;18.908;2023-03-25T06:37:47;97156.36;;;9.86;78.79
61898;BME280;47850;50.274;18.908;2023-03-25T06:40:15;97159.23;;;9.93;78.98
61898;BME280;47850;50.274;18.908;2023-03-25T06:42:43;97163.67;;;10.00;78.75
61898;BME280;47850;50.274;18.908;2023-03-25T06:45:11;97159.42;;;10.09;78.30
61898;BME280;47850;50.274;18.908;2023-03-25T06:47:40;97160.17;;;10.16;77.83
61898;BME280;47850;50.274;18.908;2023-03-25T06:50:08;97162.88;;;10.22;77.85
61898;BME280;47850;50.274;18.908;2023-03-25T06:52:36;97161.54;;;10.29;77.06
61898;BME280;47850;50.274;18.908;2023-03-25T06:55:04;97159.27;;;10.36;76.99
61898;BME280;47850;50.274;18.908;2023-03-25T06:57:31;97157.31;;;10.46;76.84
61898;BME280;47850;50.274;18.908;2023-03-25T06:59:59;97159.34;;;10.57;76.42
61898;BME280;47850;50.274;18.908;2023-03-25T07:02:27;97158.74;;;10.68;76.14
61898;BME280;47850;50.274;18.908;2023-03-25T07:04:55;97161.98;;;10.78;75.19
61898;BME280;47850;50.274;18.908;2023-03-25T07:07:22;97158.05;;;10.88;75.20
61898;BME280;47850;50.274;18.908;2023-03-25T07:09:50;97160.92;;;10.98;75.21
61898;BME280;47850;50.274;18.908;2023-03-25T07:12:19;97164.98;;;11.10;75.26
61898;BME280;47850;50.274;18.908;2023-03-25T07:14:53;97165.62;;;11.19;74.56
61898;BME280;47850;50.274;18.908;2023-03-25T07:17:21;97159.31;;;11.28;74.26
61898;BME280;47850;50.274;18.908;2023-03-25T07:19:49;97149.74;;;11.38;74.16
61898;BME280;47850;50.274;18.908;2023-03-25T07:22:17;97148.29;;;11.51;73.81
61898;BME280;47850;50.274;18.908;2023-03-25T07:24:45;97142.55;;;11.61;73.44
61898;BME280;47850;50.274;18.908;2023-03-25T07:27:13;97143.71;;;11.74;73.33
61898;BME280;47850;50.274;18.908;2023-03-25T07:29:42;97139.80;;;11.90;72.73
61898;BME280;47850;50.274;18.908;2023-03-25T07:32:09;97135.59;;;11.98;72.01
61898;BME280;47850;50.274;18.908;2023-03-25T07:34:37;97128.70;;;12.07;71.90
61898;BME280;47850;50.274;18.908;2023-03-25T07:37:05;97117.95;;;12.15;71.29
61898;BME280;47850;50.274;18.908;2023-03-25T07:39:34;97116.29;;;12.18;70.02
61898;BME280;47850;50.274;18.908;2023-03-25T07:42:02;97114.45;;;12.12;68.91
61898;BME280;47850;50.274;18.908;2023-03-25T07:44:31;97113.83;;;12.05;68.89
61898;BME280;47850;50.274;18.908;2023-03-25T07:46:59;97110.59;;;12.00;69.53
61898;BME280;47850;50.274;18.908;2023-03-25T07:49:26;97110.05;;;11.98;68.78
61898;BME280;47850;50.274;18.908;2023-03-25T07:51:54;97112.95;;;11.95;68.47
61898;BME280;47850;50.274;18.908;2023-03-25T07:54:22;97123.24;;;11.89;67.62
61898;BME280;47850;50.274;18.908;2023-03-25T07:56:50;97118.98;;;11.81;67.53
61898;BME280;47850;50.274;18.908;2023-03-25T07:59:19;97116.23;;;11.76;67.36
61898;BME280;47850;50.274;18.908;2023-03-25T08:01:46;97117.45;;;11.72;67.27
61898;BME280;47850;50.274;18.908;2023-03-25T08:04:14;97118.50;;;11.64;65.87
61898;BME280;47850;50.274;18.908;2023-03-25T08:06:42;97115.95;;;11.58;66.37
61898;BME280;47850;50.274;18.908;2023-03-25T08:09:10;97112.52;;;11.56;66.72
61898;BME280;47850;50.274;18.908;2023-03-25T08:11:37;97116.09;;;11.58;66.98
61898;BME280;47850;50.274;18.908;2023-03-25T08:14:05;97120.45;;;11.60;66.58
61898;BME280;47850;50.274;18.908;2023-03-25T08:16:33;97119.41;;;11.62;66.43
61898;BME280;47850;50.274;18.908;2023-03-25T08:19:00;97123.71;;;11.69;66.79
61898;BME280;47850;50.274;18.908;2023-03-25T08:21:28;97120.92;;;11.76;67.20
61898;BME280;47850;50.274;18.908;2023-03-25T08:23:56;97118.04;;;11.83;65.28
61898;BME280;47850;50.274;18.908;2023-03-25T08:26:31;97114.48;;;11.87;64.27
61898;BME280;47850;50.274;18.908;2023-03-25T08:29:00;97108.54;;;11.94;64.53
61898;BME280;47850;50.274;18.908;2023-03-25T08:31:29;97105.86;;;12.02;65.21
61898;BME280;47850;50.274;18.908;2023-03-25T08:33:58;97108.42;;;12.08;64.15
61898;BME280;47850;50.274;18.908;2023-03-25T08:36:26;97105.73;;;12.17;64.26
61898;BME280;47850;50.274;18.908;2023-03-25T08:38:54;97107.27;;;12.30;63.99
61898;BME280;47850;50.274;18.908;2023-03-25T08:41:23;97111.91;;;12.42;62.98
61898;BME280;47850;50.274;18.908;2023-03-25T08:43:50;97110.46;;;12.51;62.57
61898;BME280;47850;50.274;18.908;2023-03-25T08:46:19;97104.78;;;12.55;61.95
61898;BME280;47850;50.274;18.908;2023-03-25T08:48:47;97103.95;;;12.58;62.14
61898;BME280;47850;50.274;18.908;2023-03-25T08:51:16;97099.98;;;12.62;62.49
61898;BME280;47850;50.274;18.908;2023-03-25T08:53:44;97101.45;;;12.68;60.27
61898;BME280;47850;50.274;18.908;2023-03-25T08:56:11;97096.71;;;12.75;60.26
61898;BME280;47850;50.274;18.908;2023-03-25T08:58:40;97099.45;;;12.82;59.46
61898;BME280;47850;50.274;18.908;2023-03-25T09:01:08;97099.00;;;12.91;58.94
61898;BME280;47850;50.274;18.908;2023-03-25T09:03:35;97103.32;;;13.00;58.74
61898;BME280;47850;50.274;18.908;2023-03-25T09:06:05;97106.99;;;13.09;58.87
61898;BME280;47850;50.274;18.908;2023-03-25T09:08:33;97105.35;;;13.12;58.73
61898;BME280;47850;50.274;18.908;2023-03-25T09:11:03;97107.81;;;13.15;58.75
61898;BME280;47850;50.274;18.908;2023-03-25T09:13:31;97110.63;;;13.15;59.01
61898;BME280;47850;50.274;18.908;2023-03-25T09:15:58;97102.23;;;13.13;59.19
61898;BME280;47850;50.274;18.908;2023-03-25T09:18:26;97100.36;;;13.18;59.67
61898;BME280;47850;50.274;18.908;2023-03-25T09:20:57;97093.50;;;13.28;59.36
61898;BME280;47850;50.274;18.908;2023-03-25T09:23:25;97092.98;;;13.37;58.33
61898;BME280;47850;50.274;18.908;2023-03-25T09:25:53;97097.05;;;13.41;58.06
61898;BME280;47850;50.274;18.908;2023-03-25T09:28:21;97095.91;;;13.57;58.49
61898;BME280;47850;50.274;18.908;2023-03-25T09:30:48;97088.05;;;13.79;58.20
61898;BME280;47850;50.274;18.908;2023-03-25T09:33:16;97087.23;;;14.02;55.85
61898;BME280;47850;50.274;18.908;2023-03-25T09:35:45;97079.30;;;14.22;55.82
61898;BME280;47850;50.274;18.908;2023-03-25T09:38:13;97077.78;;;14.49;55.41
61898;BME280;47850;50.274;18.908;2023-03-25T09:40:42;97072.36;;;14.71;54.46
61898;BME280;47850;50.274;18.908;2023-03-25T09:45:47;97077.70;;;14.60;51.72
61898;BME280;47850;50.274;18.908;2023-03-25T09:50:49;97074.58;;;14.09;54.16
61898;BME280;47850;50.274;18.908;2023-03-25T09:55:50;97087.39;;;13.57;59.41
61898;BME280;47850;50.274;18.908;2023-03-25T10:01:00;97076.83;;;13.01;61.65
61898;BME280;47850;50.274;18.908;2023-03-25T10:11:13;97058.09;;;12.35;64.94
61898;BME280;47850;50.274;18.908;2023-03-25T10:14:00;97057.75;;;12.26;65.44
61898;BME280;47850;50.274;18.908;2023-03-25T10:19:29;97091.20;;;12.00;67.08
61898;BME280;47850;50.274;18.908;2023-03-25T10:22:02;97085.81;;;11.87;67.56
61898;BME280;47850;50.274;18.908;2023-03-25T10:27:02;97076.09;;;11.85;67.46
61898;BME280;47850;50.274;18.908;2023-03-25T10:32:05;97055.74;;;11.89;67.53
61898;BME280;47850;50.274;18.908;2023-03-25T10:34:35;97050.89;;;12.05;67.69
61898;BME280;47850;50.274;18.908;2023-03-25T10:37:05;97054.59;;;12.24;67.80
61898;BME280;47850;50.274;18.908;2023-03-25T10:39:40;97047.04;;;12.41;67.27
61898;BME280;47850;50.274;18.908;2023-03-25T10:42:24;97050.92;;;12.58;67.11
61898;BME280;47850;50.274;18.908;2023-03-25T10:44:52;97043.02;;;12.74;65.70
61898;BME280;47850;50.274;18.908;2023-03-25T10:47:25;97045.88;;;12.89;61.12
61898;BME280;47850;50.274;18.908;2023-03-25T10:49:55;97039.39;;;13.02;58.72
61898;BME280;47850;50.274;18.908;2023-03-25T10:52:25;97038.15;;;13.25;58.82
61898;BME280;47850;50.274;18.908;2023-03-25T10:54:54;97031.91;;;13.47;57.04
61898;BME280;47850;50.274;18.908;2023-03-25T10:57:24;97030.41;;;13.67;54.36
61898;BME280;47850;50.274;18.908;2023-03-25T11:00:00;97027.63;;;13.83;53.41
61898;BME280;47850;50.274;18.908;2023-03-25T11:02:32;97026.66;;;13.94;52.17
61898;BME280;47850;50.274;18.908;2023-03-25T11:05:02;97025.31;;;13.87;51.73
61898;BME280;47850;50.274;18.908;2023-03-25T11:07:32;97031.31;;;13.90;51.81
61898;BME280;47850;50.274;18.908;2023-03-25T11:10:08;97023.98;;;14.09;51.87
61898;BME280;47850;50.274;18.908;2023-03-25T11:12:36;97017.16;;;14.45;51.61
61898;BME280;47850;50.274;18.908;2023-03-25T11:15:05;97012.95;;;14.61;51.46
61898;BME280;47850;50.274;18.908;2023-03-25T11:17:34;97019.34;;;14.58;52.06
61898;BME280;47850;50.274;18.908;2023-03-25T11:20:03;97018.21;;;14.47;52.32
61898;BME280;47850;50.274;18.908;2023-03-25T11:22:41;97014.33;;;14.38;52.58
61898;BME280;47850;50.274;18.908;2023-03-25T11:27:45;97011.83;;;14.32;52.54
61898;BME280;47850;50.274;18.908;2023-03-25T11:30:18;97013.65;;;14.41;50.87
61898;BME280;47850;50.274;18.908;2023-03-25T11:32:55;97006.80;;;14.64;50.05
61898;BME280;47850;50.274;18.908;2023-03-25T11:35:24;97003.08;;;14.95;49.75
61898;BME280;47850;50.274;18.908;2023-03-25T11:37:57;97002.19;;;15.08;49.31
61898;BME280;47850;50.274;18.908;2023-03-25T11:40:26;96997.84;;;15.31;49.28
61898;BME280;47850;50.274;18.908;2023-03-25T11:42:55;97000.08;;;15.77;47.88
61898;BME280;47850;50.274;18.908;2023-03-25T11:45:25;96991.23;;;15.94;47.27
61898;BME280;47850;50.274;18.908;2023-03-25T11:47:56;96992.65;;;15.82;48.34
61898;BME280;47850;50.274;18.908;2023-03-25T11:50:26;96999.27;;;15.75;47.61
61898;BME280;47850;50.274;18.908;2023-03-25T11:52:56;96997.46;;;15.63;46.76
61898;BME280;47850;50.274;18.908;2023-03-25T11:55:43;96999.63;;;15.61;47.40
61898;BME280;47850;50.274;18.908;2023-03-25T11:58:13;97004.60;;;15.63;47.10
61898;BME280;47850;50.274;18.908;2023-03-25T12:00:45;97007.67;;;15.76;45.54
61898;BME280;47850;50.274;18.908;2023-03-25T12:05:41;97016.52;;;15.32;44.65
61898;BME280;47850;50.274;18.908;2023-03-25T12:08:13;97017.40;;;15.00;45.41
61898;BME280;47850;50.274;18.908;2023-03-25T12:10:51;97018.41;;;14.63;47.98
61898;BME280;47850;50.274;18.908;2023-03-25T12:18:25;97033.66;;;13.05;54.96
61898;BME280;47850;50.274;18.908;2023-03-25T12:21:13;97036.52;;;12.73;56.87
61898;BME280;47850;50.274;18.908;2023-03-25T12:26:13;97037.30;;;12.22;58.54
61898;BME280;47850;50.274;18.908;2023-03-25T12:28:48;97028.23;;;12.37;59.89
61898;BME280;47850;50.274;18.908;2023-03-25T12:34:12;97015.20;;;13.23;59.27
61898;BME280;47850;50.274;18.908;2023-03-25T12:42:07;97014.16;;;13.59;58.20
61898;BME280;47850;50.274;18.908;2023-03-25T13:11:02;97000.81;;;20.72;36.92
61898;BME280;47850;50.274;18.908;2023-03-25T13:13:33;96991.35;;;20.76;36.94
61898;BME280;47850;50.274;18.908;2023-03-25T13:16:04;96987.89;;;20.61;38.25
61898;BME280;47850;50.274;18.908;2023-03-25T13:18:53;96985.27;;;20.40;38.86
61898;BME280;47850;50.274;18.908;2023-03-25T13:21:30;96982.70;;;20.88;37.14
61898;BME280;47850;50.274;18.908;2023-03-25T13:24:03;96976.09;;;19.82;37.63
61898;BME280;47850;50.274;18.908;2023-03-25T13:26:32;96975.06;;;18.89;39.26
61898;BME280;47850;50.274;18.908;2023-03-25T13:31:44;96968.48;;;17.44;39.70
61898;BME280;47850;50.274;18.908;2023-03-25T13:42:11;96969.01;;;15.29;40.53
61898;BME280;47850;50.274;18.908;2023-03-25T13:44:40;96963.87;;;14.88;41.49
61898;BME280;47850;50.274;18.908;2023-03-25T13:47:29;96960.16;;;14.70;41.98
61898;BME280;47850;50.274;18.908;2023-03-25T13:53:00;96965.04;;;15.13;41.57
61898;BME280;47850;50.274;18.908;2023-03-25T13:55:32;96961.22;;;15.35;41.43
61898;BME280;47850;50.274;18.908;2023-03-25T14:13:44;96959.50;;;15.17;40.01
61898;BME280;47850;50.274;18.908;2023-03-25T14:16:14;96959.84;;;14.85;40.83
61898;BME280;47850;50.274;18.908;2023-03-25T14:18:51;96956.92;;;14.76;41.66
61898;BME280;47850;50.274;18.908;2023-03-25T14:23:48;96973.06;;;14.90;41.64
61898;BME280;47850;50.274;18.908;2023-03-25T14:26:27;96975.09;;;14.80;42.08
61898;BME280;47850;50.274;18.908;2023-03-25T14:28:55;96978.19;;;14.83;42.21
61898;BME280;47850;50.274;18.908;2023-03-25T14:31:29;96979.18;;;14.74;42.55
61898;BME280;47850;50.274;18.908;2023-03-25T14:36:29;96971.67;;;14.77;42.37
61898;BME280;47850;50.274;18.908;2023-03-25T14:38:57;96974.33;;;15.00;41.93
61898;BME280;47850;50.274;18.908;2023-03-25T14:44:16;96979.20;;;15.45;41.57
61898;BME280;47850;50.274;18.908;2023-03-25T14:46:45;96977.23;;;15.36;40.38
61898;BME280;47850;50.274;18.908;2023-03-25T14:49:19;96975.70;;;15.12;40.55
61898;BME280;47850;50.274;18.908;2023-03-25T14:51:49;96977.95;;;14.77;40.79
61898;BME280;47850;50.274;18.908;2023-03-25T14:59:16;96982.27;;;13.61;43.28
61898;BME280;47850;50.274;18.908;2023-03-25T15:01:45;96981.42;;;13.42;44.00
61898;BME280;47850;50.274;18.908;2023-03-25T15:04:14;96984.23;;;13.93;44.06
61898;BME280;47850;50.274;18.908;2023-03-25T15:06:49;96986.42;;;15.26;41.29
61898;BME280;47850;50.274;18.908;2023-03-25T15:09:16;97000.80;;;15.03;41.82
61898;BME280;47850;50.274;18.908;2023-03-25T15:11:53;97004.89;;;14.82;43.64
61898;BME280;47850;50.274;18.908;2023-03-25T15:14:26;97014.62;;;14.50;44.69
61898;BME280;47850;50.274;18.908;2023-03-25T15:16:59;97018.59;;;14.05;46.55
61898;BME280;47850;50.274;18.908;2023-03-25T15:19:27;97020.69;;;13.51;48.16
61898;BME280;47850;50.274;18.908;2023-03-25T15:26:57;97015.11;;;17.76;41.45
61898;BME280;47850;50.274;18.908;2023-03-25T15:47:26;97017.77;;;21.28;35.26
61898;BME280;47850;50.274;18.908;2023-03-25T15:50:02;97022.27;;;20.64;35.76
61898;BME280;47850;50.274;18.908;2023-03-25T15:57:39;97019.53;;;18.42;37.68
61898;BME280;47850;50.274;18.908;2023-03-25T16:00:18;97019.49;;;17.64;38.34
61898;BME280;47850;50.274;18.908;2023-03-25T16:02:49;97021.27;;;18.32;37.38
61898;BME280;47850;50.274;18.908;2023-03-25T16:05:19;97022.45;;;19.34;35.69